Oakland, TN (38060)

12:02 PM CST on December 06, 2016 (GMT -0600)
Town Of Oakland | | Change Station

Elev 375 ft 35.23 °N, 89.53 °W | Updated 5 seconds ago

Overcast
Overcast
46.2 °F
Feels Like 46 °F
N
0.0
Wind Variable Wind from NW
Gusts 1.0 mph

Today
High -- | Low -- °F
--% Chance of Precip.
Yesterday
High -- | Low -- °F
Precip. -- in
Pressure 29.89 in
Visibility 10.0 miles
Clouds Overcast 1300 ft
Windchill 46 °F
Dew Point 44 °F
Humidity 93%
Rainfall 0.07 in
Snow Depth Not available.
6:53 AM 4:45 PM
Waxing Crescent, 43% visible
METAR KNQA 061750Z 31010KT 10SM OVC013 08/07 A2989
Pressure 29.89 in
Visibility 10.0 miles
Clouds Overcast 1300 ft
Windchill 46 °F
Dew Point 44 °F
Humidity 93%
Rainfall 0.07 in
Snow Depth Not available.
6:53 AM 4:45 PM
Waxing Crescent, 43% visible
METAR KNQA 061750Z 31010KT 10SM OVC013 08/07 A2989

10-Day Weather Forecast

Almanac

Astronomy

Dec. 06, 2016 Rise Set
Actual Time
Civil Twilight
Nautical Twilight
Astronomical Twilight
Moon
Length of Visible Light
Length of Day
Tomorrow will be .
, % of the Moon is Illuminated

Today's Extremes

State Highs State Lows

Community

WunderPhotos

Upload Photos

1,955,989 photos uploaded!

WunderBlog® & News

Nearby

Air Quality

  Air Quality AQ Index Pollutant
Not available.

Snow Depth

Station Depth Elevation

Earthquake Activity

City Distance Mag. Time & Date
Minimum magnitude displayed is 2.5.

Coastal Water Temperatures

Place Temperature

Stations

Nearby Weather Stations

Station Location Temp. Windchill Dew Point Humidity Wind Precip. Elev Updated Type
                   

Watches & Warnings

There are currently no watches in effect.